Time;durP1;ratioP1;P1;durP2;ratioP2;P2;SDS_P1;SDS_P2;PMS_P1;PMS_P2;Temp;Humidity;BMP_temperature;BMP_pressure;BME280_temperature;BME280_humidity;BME280_pressure;Samples;Min_cycle;Max_cycle;Signal;HPM_P1;HPM_P2
2023/02/21 02:14:01;;;;;;;65.10;41.72;;;;;;;;;;10025436;28;20050;-59
2023/02/21 02:19:19;;;;;;;66.75;44.35;;;;;;;;;;10020238;28;20062;-59
2023/02/21 02:24:39;;;;;;;65.10;41.22;;;;;;;;;;10026451;28;20053;-59
2023/02/21 02:29:47;;;;;;;64.85;42.05;;;;;;;;;;10030315;28;20042;-59
2023/02/21 02:34:41;;;;;;;56.55;40.05;;;;;;;;;;10009247;28;20042;-59
2023/02/21 02:39:40;;;;;;;53.08;36.88;;;;;;;;;;10030490;28;20068;-59
2023/02/21 02:44:41;;;;;;;60.78;41.30;;;;;;;;;;10013003;28;20050;-59
2023/02/21 02:49:35;;;;;;;59.45;40.58;;;;;;;;;;10025075;28;20054;-59
2023/02/21 02:54:29;;;;;;;63.85;41.63;;;;;;;;;;10028170;28;20056;-58
2023/02/21 02:59:26;;;;;;;66.45;40.92;;;;;;;;;;10027526;28;20068;-59
2023/02/21 03:04:39;;;;;;;61.37;38.83;;;;;;;;;;9994460;28;20085;-59
2023/02/21 03:09:44;;;;;;;60.95;41.03;;;;;;;;;;10027689;28;20050;-59
2023/02/21 03:14:54;;;;;;;58.15;40.45;;;;;;;;;;10028348;28;20046;-59
2023/02/21 03:19:47;;;;;;;68.55;43.20;;;;;;;;;;10027568;28;20045;-59
2023/02/21 03:24:42;;;;;;;68.10;45.33;;;;;;;;;;10026473;28;20033;-60
2023/02/21 03:29:35;;;;;;;63.20;42.63;;;;;;;;;;10025316;28;20499;-59
2023/02/21 03:34:29;;;;;;;61.47;41.40;;;;;;;;;;10026514;28;20054;-59
2023/02/21 03:39:23;;;;;;;52.80;36.53;;;;;;;;;;10027357;28;20068;-60
2023/02/21 03:44:17;;;;;;;54.28;38.83;;;;;;;;;;10026241;28;20069;-59
2023/02/21 03:49:10;;;;;;;61.22;38.05;;;;;;;;;;10016417;28;20093;-59
2023/02/21 03:54:03;;;;;;;60.83;41.28;;;;;;;;;;10021681;28;20503;-60
2023/02/21 03:59:04;;;;;;;56.83;38.30;;;;;;;;;;10025954;28;20080;-60
2023/02/21 04:03:58;;;;;;;54.30;38.40;;;;;;;;;;10025032;28;20100;-60
2023/02/21 04:08:53;;;;;;;56.65;38.30;;;;;;;;;;10015159;28;20157;-59
2023/02/21 04:13:47;;;;;;;54.92;37.38;;;;;;;;;;10025120;28;20140;-60
2023/02/21 04:18:41;;;;;;;54.13;39.22;;;;;;;;;;10040151;28;20465;-58
2023/02/21 04:23:35;;;;;;;65.00;43.08;;;;;;;;;;10025055;28;20056;-59
2023/02/21 04:28:29;;;;;;;63.50;45.83;;;;;;;;;;10024835;28;20417;-60
2023/02/21 04:33:23;;;;;;;69.13;48.08;;;;;;;;;;10024549;28;20046;-60
2023/02/21 04:38:15;;;;;;;75.25;52.22;;;;;;;;;;10020498;28;20052;-60
2023/02/21 04:43:09;;;;;;;66.90;45.15;;;;;;;;;;10019061;28;20062;-60
2023/02/21 04:48:03;;;;;;;63.15;44.47;;;;;;;;;;10001790;28;20046;-60
2023/02/21 04:52:56;;;;;;;60.65;39.80;;;;;;;;;;9997673;28;21356;-59
2023/02/21 04:57:50;;;;;;;61.08;41.28;;;;;;;;;;10006298;28;20050;-60
2023/02/21 05:02:43;;;;;;;58.45;38.83;;;;;;;;;;10008191;28;20462;-60
2023/02/21 05:07:37;;;;;;;62.03;41.28;;;;;;;;;;10008624;28;20057;-59
2023/02/21 05:12:30;;;;;;;61.83;43.40;;;;;;;;;;10006321;28;20104;-59
2023/02/21 05:17:24;;;;;;;56.97;39.40;;;;;;;;;;10008280;28;20054;-59
2023/02/21 05:22:19;;;;;;;60.75;43.10;;;;;;;;;;9994710;28;20427;-59
2023/02/21 05:27:14;;;;;;;55.67;37.50;;;;;;;;;;10005265;28;20060;-60
2023/02/21 05:32:08;;;;;;;58.90;39.88;;;;;;;;;;10003451;28;20069;-60
2023/02/21 05:37:01;;;;;;;59.45;38.70;;;;;;;;;;9998433;28;20050;-60
2023/02/21 05:41:54;;;;;;;59.45;41.30;;;;;;;;;;10001413;28;20056;-59
2023/02/21 05:46:48;;;;;;;66.72;43.85;;;;;;;;;;10006567;28;20077;-60
2023/02/21 05:51:43;;;;;;;54.55;39.13;;;;;;;;;;10015678;28;20064;-58
2023/02/21 05:56:40;;;;;;;58.42;40.67;;;;;;;;;;10023717;28;20069;-58
2023/02/21 06:01:33;;;;;;;60.75;43.55;;;;;;;;;;10030493;28;20050;-60
2023/02/21 06:06:27;;;;;;;66.65;43.40;;;;;;;;;;10027228;28;20477;-58
2023/02/21 06:11:23;;;;;;;59.22;43.25;;;;;;;;;;10029315;28;20077;-59
2023/02/21 06:16:17;;;;;;;63.60;40.97;;;;;;;;;;10028021;28;20402;-59
2023/02/21 06:21:10;;;;;;;56.90;38.45;;;;;;;;;;10019988;28;20050;-60
2023/02/21 06:26:04;;;;;;;59.55;41.08;;;;;;;;;;10027399;28;20049;-59
2023/02/21 06:30:57;;;;;;;56.63;39.50;;;;;;;;;;10011010;28;20064;-59
2023/02/21 06:35:51;;;;;;;54.22;37.90;;;;;;;;;;10029812;28;20494;-58
2023/02/21 06:40:45;;;;;;;54.50;37.28;;;;;;;;;;10029450;28;20042;-59
2023/02/21 06:45:39;;;;;;;52.42;35.13;;;;;;;;;;10026410;28;20478;-58
2023/02/21 06:50:33;;;;;;;49.50;35.42;;;;;;;;;;10023388;28;20046;-58
2023/02/21 06:55:26;;;;;;;55.08;36.85;;;;;;;;;;10017301;28;20053;-58
2023/02/21 07:00:19;;;;;;;53.22;36.95;;;;;;;;;;10028881;28;20034;-59
2023/02/21 07:05:14;;;;;;;57.25;35.58;;;;;;;;;;10029544;28;20049;-59
2023/02/21 07:10:08;;;;;;;55.25;35.05;;;;;;;;;;10013199;28;20101;-60
2023/02/21 07:15:01;;;;;;;55.08;38.60;;;;;;;;;;10010008;28;20112;-59
2023/02/21 07:19:55;;;;;;;52.08;35.72;;;;;;;;;;10004044;28;20430;-62
2023/02/21 07:24:49;;;;;;;66.07;43.25;;;;;;;;;;10011869;28;20103;-59
2023/02/21 07:29:43;;;;;;;57.47;40.30;;;;;;;;;;10027095;28;20132;-59
2023/02/21 07:34:36;;;;;;;66.32;43.67;;;;;;;;;;10024823;28;20522;-59
2023/02/21 07:39:31;;;;;;;57.05;38.70;;;;;;;;;;10026204;28;20089;-59
2023/02/21 07:44:24;;;;;;;54.83;41.05;;;;;;;;;;10020714;28;20136;-59
2023/02/21 07:49:18;;;;;;;58.55;38.33;;;;;;;;;;10022927;28;20127;-59
2023/02/21 07:54:11;;;;;;;63.78;40.03;;;;;;;;;;10023117;28;20085;-59
2023/02/21 07:59:05;;;;;;;60.00;42.58;;;;;;;;;;10025261;28;20049;-59
2023/02/21 08:03:58;;;;;;;59.72;43.83;;;;;;;;;;10027210;28;20056;-59
2023/02/21 08:08:54;;;;;;;59.10;42.00;;;;;;;;;;10026269;28;20061;-59
2023/02/21 08:13:48;;;;;;;74.78;40.92;;;;;;;;;;10026335;28;20092;-60
2023/02/21 08:18:41;;;;;;;59.85;37.55;;;;;;;;;;10025139;28;20484;-60
2023/02/21 08:23:34;;;;;;;58.45;35.90;;;;;;;;;;10026438;28;20145;-60
2023/02/21 08:28:28;;;;;;;57.83;36.65;;;;;;;;;;10022911;28;20424;-60
2023/02/21 08:33:22;;;;;;;62.20;37.90;;;;;;;;;;10025902;28;20050;-60
2023/02/21 08:38:17;;;;;;;61.88;43.10;;;;;;;;;;10021713;28;20137;-60
2023/02/21 08:43:11;;;;;;;68.25;44.95;;;;;;;;;;10016590;28;20076;-60
2023/02/21 08:48:05;;;;;;;69.28;42.45;;;;;;;;;;10025019;28;20066;-60
2023/02/21 08:52:58;;;;;;;78.72;44.45;;;;;;;;;;10025373;28;20058;-60
2023/02/21 08:57:53;;;;;;;74.63;48.92;;;;;;;;;;10026148;28;20049;-60
2023/02/21 09:02:46;;;;;;;72.88;46.83;;;;;;;;;;10026388;28;20054;-60
2023/02/21 09:07:40;;;;;;;79.18;47.33;;;;;;;;;;10015140;28;20058;-59
2023/02/21 09:12:34;;;;;;;76.03;44.90;;;;;;;;;;10025045;28;20491;-60
2023/02/21 09:17:32;;;;;;;71.50;44.50;;;;;;;;;;10016082;28;20073;-60
2023/02/21 09:22:26;;;;;;;74.53;46.17;;;;;;;;;;10013687;28;20480;-59
2023/02/21 09:27:35;;;;;;;71.07;48.05;;;;;;;;;;10025729;28;20145;-59
2023/02/21 09:32:29;;;;;;;74.10;45.83;;;;;;;;;;10022913;28;20054;-59
2023/02/21 09:37:22;;;;;;;73.25;48.92;;;;;;;;;;10032724;28;20499;-59
2023/02/21 09:42:18;;;;;;;70.38;44.72;;;;;;;;;;10031745;28;20511;-59
2023/02/21 09:47:24;;;;;;;78.45;47.88;;;;;;;;;;10028874;28;20517;-59
2023/02/21 09:52:37;;;;;;;79.55;48.97;;;;;;;;;;10030345;28;20053;-59
2023/02/21 09:57:37;;;;;;;73.97;46.00;;;;;;;;;;10029565;28;20049;-59
2023/02/21 10:02:42;;;;;;;79.38;45.47;;;;;;;;;;10012177;28;20064;-59
2023/02/21 10:07:46;;;;;;;75.80;45.80;;;;;;;;;;10029795;28;20407;-59
2023/02/21 10:12:47;;;;;;;72.32;47.40;;;;;;;;;;10014438;28;20041;-59
2023/02/21 10:17:58;;;;;;;78.35;48.70;;;;;;;;;;10026639;28;20120;-59
2023/02/21 10:22:51;;;;;;;79.22;42.28;;;;;;;;;;10027389;28;20499;-59
2023/02/21 10:27:44;;;;;;;94.38;46.72;;;;;;;;;;10021059;28;20054;-59
2023/02/21 10:32:38;;;;;;;85.22;42.47;;;;;;;;;;10027157;28;20107;-59
2023/02/21 10:37:40;;;;;;;79.00;45.00;;;;;;;;;;10029694;28;20041;-59
2023/02/21 10:42:42;;;;;;;87.88;47.25;;;;;;;;;;10029074;28;20054;-59
2023/02/21 10:47:59;;;;;;;76.38;46.00;;;;;;;;;;10028242;28;20061;-59
2023/02/21 10:52:52;;;;;;;89.47;49.28;;;;;;;;;;10018848;28;20486;-59
2023/02/21 10:57:50;;;;;;;81.93;49.08;;;;;;;;;;10030327;28;20093;-59
2023/02/21 11:02:44;;;;;;;93.38;46.83;;;;;;;;;;10018362;28;20077;-58
2023/02/21 11:07:37;;;;;;;82.43;47.47;;;;;;;;;;10019523;28;20451;-59
2023/02/21 11:12:30;;;;;;;79.05;44.17;;;;;;;;;;10028928;28;20068;-59
2023/02/21 11:17:32;;;;;;;97.82;40.90;;;;;;;;;;10028616;28;20077;-59
2023/02/21 11:22:41;;;;;;;83.95;38.83;;;;;;;;;;10027105;28;20049;-59
2023/02/21 11:27:36;;;;;;;88.97;38.25;;;;;;;;;;10027767;28;20463;-59
2023/02/21 11:32:35;;;;;;;73.47;36.75;;;;;;;;;;10026977;28;20440;-59
2023/02/21 11:37:28;;;;;;;72.07;36.80;;;;;;;;;;10020752;28;20042;-59
2023/02/21 11:42:33;;;;;;;82.63;32.25;;;;;;;;;;10027837;28;20050;-59
2023/02/21 11:47:38;;;;;;;69.63;36.05;;;;;;;;;;10028193;28;20180;-59
2023/02/21 11:52:37;;;;;;;50.88;32.00;;;;;;;;;;10024710;28;20045;-59
2023/02/21 11:57:53;;;;;;;43.58;28.10;;;;;;;;;;10024056;28;20053;-59
2023/02/21 12:03:09;;;;;;;38.92;24.20;;;;;;;;;;10027038;28;20072;-59
2023/02/21 12:08:16;;;;;;;34.40;23.63;;;;;;;;;;10026530;28;20050;-59
2023/02/21 12:13:28;;;;;;;24.98;17.02;;;;;;;;;;10026375;28;20053;-59
2023/02/21 12:18:27;;;;;;;33.63;20.58;;;;;;;;;;10022010;28;20399;-59
2023/02/21 12:23:47;;;;;;;24.85;16.83;;;;;;;;;;10013350;28;20096;-59
2023/02/21 12:29:20;;;;;;;23.15;16.38;;;;;;;;;;10020278;28;20128;-59
2023/02/21 12:34:43;;;;;;;19.52;15.98;;;;;;;;;;10024777;28;20089;-59
2023/02/21 12:39:56;;;;;;;25.38;15.25;;;;;;;;;;10025395;28;20137;-59
2023/02/21 12:44:51;;;;;;;24.50;16.45;;;;;;;;;;10023316;28;20058;-59
2023/02/21 12:50:08;;;;;;;30.25;17.85;;;;;;;;;;10021979;28;20054;-59
2023/02/21 12:55:07;;;;;;;29.80;17.30;;;;;;;;;;10029548;28;20538;-59
2023/02/21 13:00:25;;;;;;;18.05;12.85;;;;;;;;;;10023841;28;20054;-58
2023/02/21 13:05:42;;;;;;;22.65;16.02;;;;;;;;;;10031359;28;20046;-59
2023/02/21 13:10:45;;;;;;;21.05;14.68;;;;;;;;;;10026419;28;20082;-59
2023/02/21 13:15:40;;;;;;;21.20;14.90;;;;;;;;;;10031738;28;20052;-59
2023/02/21 13:20:47;;;;;;;22.50;16.25;;;;;;;;;;10031579;28;20046;-59
2023/02/21 13:25:55;;;;;;;23.05;17.17;;;;;;;;;;10032822;28;20557;-59
2023/02/21 13:30:57;;;;;;;20.25;16.20;;;;;;;;;;10031877;28;20050;-59
2023/02/21 13:35:50;;;;;;;25.25;16.40;;;;;;;;;;10032196;28;20060;-59
2023/02/21 13:40:53;;;;;;;20.38;15.63;;;;;;;;;;10032144;28;20075;-59
2023/02/21 13:45:47;;;;;;;21.90;15.82;;;;;;;;;;10032414;28;20050;-59
2023/02/21 13:50:47;;;;;;;20.02;16.10;;;;;;;;;;10029085;28;20066;-59
2023/02/21 13:55:59;;;;;;;26.15;16.35;;;;;;;;;;10029349;28;20474;-59
2023/02/21 14:00:53;;;;;;;23.90;16.90;;;;;;;;;;10023225;28;20058;-59
2023/02/21 14:05:49;;;;;;;21.35;16.40;;;;;;;;;;10022682;28;20062;-58
2023/02/21 14:10:47;;;;;;;23.85;17.65;;;;;;;;;;10023294;28;20129;-58
2023/02/21 14:15:45;;;;;;;24.80;17.97;;;;;;;;;;10015459;28;20462;-59
2023/02/21 14:20:39;;;;;;;25.83;18.58;;;;;;;;;;10027141;28;20643;-59
2023/02/21 14:25:34;;;;;;;26.92;16.08;;;;;;;;;;10027617;28;20145;-59
2023/02/21 14:30:31;;;;;;;23.95;16.25;;;;;;;;;;10023248;28;20073;-59
2023/02/21 14:35:47;;;;;;;28.73;17.80;;;;;;;;;;10020900;28;20042;-59
2023/02/21 14:41:03;;;;;;;28.98;20.85;;;;;;;;;;10006938;28;20093;-58
2023/02/21 14:46:15;;;;;;;29.42;19.48;;;;;;;;;;10011011;28;20049;-59
2023/02/21 14:51:14;;;;;;;28.70;20.83;;;;;;;;;;10009702;28;20141;-59
2023/02/21 14:56:44;;;;;;;32.60;19.85;;;;;;;;;;10021413;28;20046;-59
2023/02/21 15:01:57;;;;;;;31.42;19.33;;;;;;;;;;10025835;28;20607;-59
2023/02/21 15:07:03;;;;;;;29.45;19.20;;;;;;;;;;10011970;28;20045;-58
2023/02/21 15:11:58;;;;;;;34.10;23.67;;;;;;;;;;10015103;28;20133;-59
2023/02/21 15:16:55;;;;;;;32.78;22.88;;;;;;;;;;10019223;28;20120;-59
2023/02/21 15:21:49;;;;;;;33.67;20.88;;;;;;;;;;10024522;28;20077;-59
2023/02/21 15:26:44;;;;;;;28.73;22.08;;;;;;;;;;10024646;28;20054;-59
2023/02/21 15:31:44;;;;;;;37.53;23.13;;;;;;;;;;10024646;28;20404;-59
2023/02/21 15:36:37;;;;;;;42.60;24.25;;;;;;;;;;10025107;28;20049;-59
2023/02/21 15:41:58;;;;;;;40.15;23.20;;;;;;;;;;10024501;28;20132;-58
2023/02/21 15:46:56;;;;;;;35.60;20.75;;;;;;;;;;10008699;28;20054;-59
2023/02/21 15:51:49;;;;;;;41.38;21.23;;;;;;;;;;10022973;28;20084;-59
2023/02/21 15:56:44;;;;;;;34.22;20.10;;;;;;;;;;10023347;28;20058;-58
2023/02/21 16:01:38;;;;;;;32.75;22.48;;;;;;;;;;10015548;28;20044;-59
2023/02/21 16:06:31;;;;;;;36.40;22.20;;;;;;;;;;10022727;28;20399;-59
2023/02/21 16:11:36;;;;;;;30.75;21.67;;;;;;;;;;10021936;28;20096;-59
2023/02/21 16:17:24;;;;;;;31.92;21.63;;;;;;;;;;10023451;28;20045;-59
2023/02/21 16:22:23;;;;;;;29.33;20.73;;;;;;;;;;9909107;28;20047;-59
2023/02/21 16:27:18;;;;;;;33.45;21.63;;;;;;;;;;10021942;28;20089;-58
2023/02/21 16:32:18;;;;;;;28.73;21.15;;;;;;;;;;10030285;28;20122;-59
2023/02/21 16:37:13;;;;;;;27.27;17.95;;;;;;;;;;10020200;28;20050;-58
2023/02/21 16:42:07;;;;;;;28.80;20.15;;;;;;;;;;10025354;28;20049;-58
2023/02/21 16:46:59;;;;;;;34.95;19.58;;;;;;;;;;10008508;28;20076;-59
2023/02/21 16:51:53;;;;;;;29.65;20.30;;;;;;;;;;10023915;28;20084;-58
2023/02/21 16:56:50;;;;;;;33.97;21.38;;;;;;;;;;10019347;28;20083;-57
2023/02/21 17:01:43;;;;;;;32.10;21.55;;;;;;;;;;10025756;28;20061;-58
2023/02/21 17:06:37;;;;;;;36.10;22.13;;;;;;;;;;10023410;28;20056;-58
2023/02/21 17:11:31;;;;;;;31.55;22.73;;;;;;;;;;10020210;28;20503;-59
2023/02/21 17:16:25;;;;;;;34.75;25.63;;;;;;;;;;9995966;28;20046;-60
2023/02/21 17:21:18;;;;;;;39.78;24.20;;;;;;;;;;10008198;28;20242;-58
2023/02/21 17:26:11;;;;;;;39.72;24.95;;;;;;;;;;10011838;28;20046;-59
2023/02/21 17:31:06;;;;;;;43.05;26.52;;;;;;;;;;10007529;28;20062;-59
2023/02/21 17:36:00;;;;;;;38.05;24.92;;;;;;;;;;10005860;28;20050;-58
2023/02/21 17:40:53;;;;;;;33.25;25.70;;;;;;;;;;10010024;28;20073;-59
2023/02/21 17:45:47;;;;;;;42.13;27.35;;;;;;;;;;10020682;28;20050;-58
2023/02/21 17:50:40;;;;;;;44.03;30.85;;;;;;;;;;10007008;28;20057;-58
2023/02/21 17:55:35;;;;;;;46.65;29.83;;;;;;;;;;10016287;28;20049;-58
2023/02/21 18:00:29;;;;;;;46.60;32.10;;;;;;;;;;10006354;28;20580;-58
2023/02/21 18:05:22;;;;;;;45.88;31.75;;;;;;;;;;10009348;28;20069;-59
2023/02/21 18:10:17;;;;;;;44.13;31.42;;;;;;;;;;10011336;28;20052;-59
2023/02/21 18:15:10;;;;;;;49.92;35.75;;;;;;;;;;10027847;28;20053;-59
2023/02/21 18:20:07;;;;;;;60.33;40.55;;;;;;;;;;10031299;28;20722;-59
2023/02/21 18:25:01;;;;;;;69.13;45.38;;;;;;;;;;10030575;28;20044;-59
2023/02/21 18:29:54;;;;;;;64.15;46.00;;;;;;;;;;10019999;28;20053;-58
2023/02/21 18:34:49;;;;;;;73.45;50.55;;;;;;;;;;10006446;28;20096;-59
2023/02/21 18:39:42;;;;;;;70.07;46.97;;;;;;;;;;10017049;28;20042;-59
2023/02/21 18:44:36;;;;;;;60.33;42.55;;;;;;;;;;10025412;28;20049;-59
2023/02/21 18:49:36;;;;;;;51.45;35.35;;;;;;;;;;10029998;28;20069;-59
2023/02/21 18:54:29;;;;;;;64.47;41.25;;;;;;;;;;10028946;28;20503;-60
2023/02/21 18:59:22;;;;;;;56.97;36.88;;;;;;;;;;10009520;28;20043;-61
2023/02/21 19:04:15;;;;;;;57.45;38.17;;;;;;;;;;10004408;28;20050;-61
2023/02/21 19:09:08;;;;;;;51.58;37.30;;;;;;;;;;10012794;28;20518;-61
2023/02/21 19:14:04;;;;;;;56.80;37.63;;;;;;;;;;10005750;28;20089;-61
2023/02/21 19:18:58;;;;;;;61.78;40.28;;;;;;;;;;10006772;28;20042;-61
2023/02/21 19:23:51;;;;;;;60.90;39.58;;;;;;;;;;10007438;28;20231;-60
2023/02/21 19:28:45;;;;;;;56.08;38.53;;;;;;;;;;9996451;28;20451;-61
2023/02/21 19:33:39;;;;;;;57.53;38.80;;;;;;;;;;10012617;28;20141;-60
2023/02/21 19:38:33;;;;;;;53.72;36.60;;;;;;;;;;10015743;28;20069;-61
2023/02/21 19:43:27;;;;;;;52.65;34.67;;;;;;;;;;10019635;28;20050;-61
2023/02/21 19:48:20;;;;;;;52.88;36.53;;;;;;;;;;10018755;28;20088;-61
2023/02/21 19:53:14;;;;;;;61.33;38.35;;;;;;;;;;10006543;28;20050;-60
2023/02/21 19:58:08;;;;;;;56.80;39.05;;;;;;;;;;10020854;28;20132;-60
2023/02/21 20:03:02;;;;;;;54.80;36.88;;;;;;;;;;10015217;28;20088;-60
2023/02/21 20:07:57;;;;;;;57.13;38.00;;;;;;;;;;10016131;28;20576;-60
2023/02/21 20:12:52;;;;;;;54.53;37.03;;;;;;;;;;10006106;28;20050;-60
2023/02/21 20:17:45;;;;;;;56.08;37.05;;;;;;;;;;10006225;28;20073;-59
2023/02/21 20:22:38;;;;;;;57.30;40.63;;;;;;;;;;10005754;28;20435;-60
2023/02/21 20:27:32;;;;;;;51.85;37.20;;;;;;;;;;9985156;28;20125;-60
2023/02/21 20:32:26;;;;;;;56.58;37.33;;;;;;;;;;10006558;28;20050;-59
2023/02/21 20:37:19;;;;;;;51.20;36.70;;;;;;;;;;10009021;28;20046;-61
2023/02/21 20:42:12;;;;;;;59.05;36.00;;;;;;;;;;10008379;28;20054;-61
2023/02/21 20:47:05;;;;;;;58.97;41.03;;;;;;;;;;10002130;28;20042;-60
2023/02/21 20:51:59;;;;;;;57.80;37.72;;;;;;;;;;10009559;28;20062;-60
2023/02/21 20:56:55;;;;;;;48.22;34.35;;;;;;;;;;10005028;28;20057;-60
2023/02/21 21:01:49;;;;;;;50.05;34.63;;;;;;;;;;10008004;28;20053;-60
2023/02/21 21:06:44;;;;;;;50.90;34.60;;;;;;;;;;10009521;28;20051;-61
2023/02/21 21:11:41;;;;;;;53.10;32.70;;;;;;;;;;9992273;28;20101;-61
2023/02/21 21:16:35;;;;;;;47.47;32.33;;;;;;;;;;9992287;28;20058;-61
2023/02/21 21:21:32;;;;;;;46.28;34.72;;;;;;;;;;9990978;28;20054;-62
2023/02/21 21:26:25;;;;;;;45.15;31.60;;;;;;;;;;10004912;28;20050;-62
2023/02/21 21:31:19;;;;;;;52.05;34.20;;;;;;;;;;10004743;28;20108;-61
2023/02/21 21:36:12;;;;;;;51.53;34.15;;;;;;;;;;9993246;28;20918;-61
2023/02/21 21:41:12;;;;;;;48.25;34.83;;;;;;;;;;9996930;28;20059;-61
2023/02/21 21:46:07;;;;;;;55.83;33.95;;;;;;;;;;10003951;28;20122;-60
2023/02/21 21:51:02;;;;;;;55.08;35.28;;;;;;;;;;9998851;28;20074;-60
2023/02/21 21:56:03;;;;;;;52.97;35.80;;;;;;;;;;10013437;28;20484;-60
2023/02/21 22:00:59;;;;;;;50.00;35.58;;;;;;;;;;10008206;28;20061;-61
2023/02/21 22:05:55;;;;;;;54.20;36.17;;;;;;;;;;10010760;28;20097;-63
2023/02/21 22:10:48;;;;;;;53.40;37.45;;;;;;;;;;10002512;28;20116;-61
2023/02/21 22:15:42;;;;;;;56.53;38.70;;;;;;;;;;10014866;28;20137;-61
2023/02/21 22:20:35;;;;;;;60.10;41.30;;;;;;;;;;10017754;28;20073;-61
2023/02/21 22:25:30;;;;;;;52.72;40.10;;;;;;;;;;10017609;28;20050;-61
2023/02/21 22:30:24;;;;;;;62.35;41.17;;;;;;;;;;10004482;28;20050;-61
2023/02/21 22:35:19;;;;;;;60.80;40.65;;;;;;;;;;10021317;28;20048;-61
2023/02/21 22:40:16;;;;;;;59.90;42.83;;;;;;;;;;10002496;28;20518;-61
2023/02/21 22:45:10;;;;;;;60.88;38.42;;;;;;;;;;10008072;28;20038;-61
2023/02/21 22:50:06;;;;;;;55.72;38.83;;;;;;;;;;10006166;28;20054;-61
2023/02/21 22:54:59;;;;;;;56.22;39.45;;;;;;;;;;10020872;28;20065;-61
2023/02/21 22:59:54;;;;;;;64.85;39.10;;;;;;;;;;10017812;28;20078;-60
2023/02/21 23:04:47;;;;;;;57.17;39.75;;;;;;;;;;10020645;28;20054;-61
2023/02/21 23:09:41;;;;;;;57.67;41.03;;;;;;;;;;10011418;28;20046;-61
2023/02/21 23:14:35;;;;;;;67.93;40.72;;;;;;;;;;10016380;28;20402;-61
2023/02/21 23:19:31;;;;;;;58.70;40.65;;;;;;;;;;10017696;28;20046;-60
2023/02/21 23:24:24;;;;;;;62.55;40.65;;;;;;;;;;10016075;28;20052;-61
2023/02/21 23:29:19;;;;;;;59.58;39.42;;;;;;;;;;10011643;28;20144;-61
2023/02/21 23:34:13;;;;;;;62.42;42.00;;;;;;;;;;10009287;28;20052;-61
2023/02/21 23:39:26;;;;;;;53.58;38.08;;;;;;;;;;10012514;28;20053;-61
2023/02/21 23:44:21;;;;;;;61.10;40.22;;;;;;;;;;9998335;28;20066;-61
2023/02/21 23:49:14;;;;;;;59.85;41.60;;;;;;;;;;10002621;28;20062;-61
2023/02/21 23:54:08;;;;;;;58.35;40.45;;;;;;;;;;10021755;28;20511;-61
2023/02/21 23:59:04;;;;;;;68.57;41.67;;;;;;;;;;10025407;28;20064;-61
